Time;durP1;ratioP1;P1;durP2;ratioP2;P2;SDS_P1;SDS_P2;PMS_P1;PMS_P2;Temp;Humidity;BMP_temperature;BMP_pressure;BME280_temperature;BME280_humidity;BME280_pressure;Samples;Min_cycle;Max_cycle;Signal;HPM_P1;HPM_P2
2022/05/04 00:00:21;;;;;;;;;;;7.30;99.90;;;;;;4980093;28;19961;-60
2022/05/04 00:02:46;;;;;;;;;;;7.30;99.90;;;;;;4985433;28;19949;-60
2022/05/04 00:05:12;;;;;;;;;;;7.30;99.90;;;;;;4981124;28;19953;-60
2022/05/04 00:07:37;;;;;;;;;;;7.30;99.90;;;;;;4989652;28;19928;-60
2022/05/04 00:10:04;;;;;;;;;;;7.20;99.90;;;;;;4987195;28;19918;-60
2022/05/04 00:12:30;;;;;;;;;;;7.00;99.90;;;;;;4983839;28;19910;-61
2022/05/04 00:14:55;;;;;;;;;;;7.00;99.90;;;;;;4983781;28;20008;-60
2022/05/04 00:17:21;;;;;;;;;;;6.90;99.90;;;;;;4984403;28;20284;-60
2022/05/04 00:19:46;;;;;;;;;;;6.90;99.90;;;;;;4983731;28;19918;-60
2022/05/04 00:22:16;;;;;;;;;;;6.80;99.90;;;;;;4983023;28;20000;-60
2022/05/04 00:24:41;;;;;;;;;;;6.80;99.90;;;;;;4984855;28;20313;-60
2022/05/04 00:27:07;;;;;;;;;;;6.70;99.90;;;;;;4985743;28;19914;-60
2022/05/04 00:29:32;;;;;;;;;;;6.70;99.90;;;;;;4983004;28;19984;-60
2022/05/04 00:31:58;;;;;;;;;;;6.80;99.90;;;;;;4983762;28;19926;-60
2022/05/04 00:34:23;;;;;;;;;;;6.80;99.90;;;;;;4982675;28;19936;-60
2022/05/04 00:36:49;;;;;;;;;;;6.80;99.90;;;;;;4983504;28;19945;-60
2022/05/04 00:39:14;;;;;;;;;;;6.90;99.90;;;;;;4984518;28;19924;-60
2022/05/04 00:41:40;;;;;;;;;;;6.90;99.90;;;;;;4985828;28;19952;-60
2022/05/04 00:44:05;;;;;;;;;;;6.90;99.90;;;;;;4984643;28;19913;-60
2022/05/04 00:46:32;;;;;;;;;;;6.80;99.90;;;;;;4993788;28;20012;-60
2022/05/04 00:48:57;;;;;;;;;;;6.80;99.90;;;;;;4988623;28;20009;-60
2022/05/04 00:51:23;;;;;;;;;;;6.80;99.90;;;;;;4984165;28;19913;-60
2022/05/04 00:53:48;;;;;;;;;;;6.90;99.90;;;;;;4984904;28;20372;-61
2022/05/04 00:56:15;;;;;;;;;;;6.80;99.90;;;;;;4986289;28;20004;-61
2022/05/04 00:58:56;;;;;;;;;;;6.70;99.90;;;;;;4986231;28;19940;-60
2022/05/04 01:01:26;;;;;;;;;;;6.70;99.90;;;;;;4984514;28;19917;-60
2022/05/04 01:03:52;;;;;;;;;;;6.70;99.90;;;;;;4988067;28;19921;-59
2022/05/04 01:06:18;;;;;;;;;;;6.80;99.90;;;;;;4987323;28;19918;-60
2022/05/04 01:08:43;;;;;;;;;;;6.70;99.90;;;;;;4986817;28;19924;-60
2022/05/04 01:11:09;;;;;;;;;;;6.70;99.90;;;;;;4989770;28;19910;-60
2022/05/04 01:13:34;;;;;;;;;;;6.60;99.90;;;;;;4987250;28;19910;-59
2022/05/04 01:16:00;;;;;;;;;;;6.50;99.90;;;;;;4985593;28;19925;-60
2022/05/04 01:18:25;;;;;;;;;;;6.40;99.90;;;;;;4985950;28;20012;-60
2022/05/04 01:20:51;;;;;;;;;;;6.40;99.90;;;;;;4988085;28;20378;-60
2022/05/04 01:23:17;;;;;;;;;;;6.40;99.90;;;;;;4985425;28;20004;-60
2022/05/04 01:25:44;;;;;;;;;;;6.30;99.90;;;;;;4986393;28;19917;-60
2022/05/04 01:28:10;;;;;;;;;;;6.20;99.90;;;;;;4988139;28;19996;-60
2022/05/04 01:30:36;;;;;;;;;;;6.10;99.90;;;;;;4986267;28;20422;-60
2022/05/04 01:33:02;;;;;;;;;;;6.10;99.90;;;;;;4989049;28;19932;-60
2022/05/04 01:35:27;;;;;;;;;;;6.00;99.90;;;;;;4986322;28;19948;-60
2022/05/04 01:37:53;;;;;;;;;;;6.10;99.90;;;;;;4987678;28;19917;-60
2022/05/04 01:40:18;;;;;;;;;;;6.10;99.90;;;;;;4986326;28;19921;-60
2022/05/04 01:42:44;;;;;;;;;;;6.00;99.90;;;;;;4987587;28;19909;-60
2022/05/04 01:45:10;;;;;;;;;;;6.00;99.90;;;;;;4985182;28;19914;-60
2022/05/04 01:47:36;;;;;;;;;;;5.90;99.90;;;;;;4986457;28;20297;-60
2022/05/04 01:50:02;;;;;;;;;;;5.90;99.90;;;;;;4984101;28;19917;-61
2022/05/04 01:52:28;;;;;;;;;;;6.10;99.90;;;;;;5017160;28;19918;-60
2022/05/04 01:54:53;;;;;;;;;;;6.10;99.90;;;;;;4986726;28;19921;-60
2022/05/04 01:57:19;;;;;;;;;;;6.10;99.90;;;;;;4985985;28;19913;-60
2022/05/04 01:59:45;;;;;;;;;;;6.10;99.90;;;;;;4986718;28;19917;-60
2022/05/04 02:02:11;;;;;;;;;;;6.00;99.90;;;;;;4983903;28;19925;-60
2022/05/04 02:04:37;;;;;;;;;;;6.00;99.90;;;;;;4986834;28;19965;-60
2022/05/04 02:07:03;;;;;;;;;;;6.00;99.90;;;;;;4987218;28;19916;-60
2022/05/04 02:09:29;;;;;;;;;;;5.80;99.90;;;;;;4987433;28;19976;-60
2022/05/04 02:11:55;;;;;;;;;;;5.80;99.90;;;;;;4987256;28;20004;-60
2022/05/04 02:14:20;;;;;;;;;;;5.70;99.90;;;;;;4986866;28;20005;-60
2022/05/04 02:16:46;;;;;;;;;;;5.60;99.90;;;;;;4984815;28;19917;-59
2022/05/04 02:19:12;;;;;;;;;;;5.60;99.90;;;;;;5020114;28;19909;-60
2022/05/04 02:21:37;;;;;;;;;;;5.70;99.90;;;;;;4997175;28;19921;-60
2022/05/04 02:24:03;;;;;;;;;;;5.60;99.90;;;;;;4986975;28;19910;-59
2022/05/04 02:26:28;;;;;;;;;;;5.50;99.90;;;;;;4981313;28;19968;-60
2022/05/04 02:28:54;;;;;;;;;;;5.50;99.90;;;;;;4986002;28;20038;-59
2022/05/04 02:31:19;;;;;;;;;;;5.50;99.90;;;;;;4985353;28;20464;-60
2022/05/04 02:33:47;;;;;;;;;;;5.50;99.90;;;;;;4985675;28;20382;-60
2022/05/04 02:38:57;;;;;;;;;;;5.40;99.90;;;;;;4984424;28;20353;-61
2022/05/04 02:41:23;;;;;;;;;;;5.30;99.90;;;;;;4985829;28;19917;-60
2022/05/04 02:43:49;;;;;;;;;;;5.20;99.90;;;;;;4984716;28;20695;-60
2022/05/04 02:46:15;;;;;;;;;;;5.20;99.90;;;;;;4985860;28;19910;-60
2022/05/04 02:48:41;;;;;;;;;;;5.30;99.90;;;;;;4986894;28;19937;-60
2022/05/04 02:51:06;;;;;;;;;;;5.40;99.90;;;;;;4989965;28;19914;-60
2022/05/04 02:53:32;;;;;;;;;;;5.40;99.90;;;;;;4987533;28;20456;-60
2022/05/04 02:55:57;;;;;;;;;;;5.30;99.90;;;;;;4986404;28;19910;-60
2022/05/04 02:58:23;;;;;;;;;;;5.40;99.90;;;;;;4985244;28;19914;-60
2022/05/04 03:00:48;;;;;;;;;;;5.30;99.90;;;;;;4986281;28;19921;-60
2022/05/04 03:03:14;;;;;;;;;;;5.20;99.90;;;;;;4986438;28;20390;-60
2022/05/04 03:05:39;;;;;;;;;;;5.10;99.90;;;;;;4985212;28;19910;-60
2022/05/04 03:08:05;;;;;;;;;;;5.10;99.90;;;;;;4985848;28;19917;-60
2022/05/04 03:11:54;;;;;;;;;;;5.10;99.90;;;;;;4986889;28;19967;-61
2022/05/04 03:13:17;;;;;;;;;;;5.20;99.90;;;;;;4984531;28;19984;-60
2022/05/04 03:15:42;;;;;;;;;;;5.30;99.90;;;;;;4985567;28;19917;-60
2022/05/04 03:18:07;;;;;;;;;;;5.30;99.90;;;;;;4985482;28;20764;-60
2022/05/04 03:20:33;;;;;;;;;;;5.30;99.90;;;;;;4985615;28;19952;-59
2022/05/04 03:22:58;;;;;;;;;;;5.20;99.90;;;;;;4985656;28;19913;-59
2022/05/04 03:25:24;;;;;;;;;;;5.40;99.90;;;;;;4986364;28;19913;-60
2022/05/04 03:27:49;;;;;;;;;;;5.80;99.90;;;;;;4986179;28;19914;-60
2022/05/04 03:30:19;;;;;;;;;;;5.90;99.90;;;;;;4985149;28;19920;-60
2022/05/04 03:32:45;;;;;;;;;;;6.00;99.90;;;;;;4985176;28;19922;-61
2022/05/04 03:35:10;;;;;;;;;;;5.70;99.90;;;;;;4986170;28;19920;-61
2022/05/04 03:37:36;;;;;;;;;;;5.60;99.90;;;;;;4986090;28;19945;-60
2022/05/04 03:40:02;;;;;;;;;;;5.40;99.90;;;;;;4991035;28;19909;-60
2022/05/04 03:42:27;;;;;;;;;;;5.30;99.90;;;;;;4993602;28;20006;-60
2022/05/04 03:44:53;;;;;;;;;;;5.10;99.90;;;;;;4982844;28;19920;-60
2022/05/04 03:47:19;;;;;;;;;;;5.10;99.90;;;;;;4985808;28;20369;-60
2022/05/04 03:49:44;;;;;;;;;;;5.10;99.90;;;;;;4985179;28;20357;-59
2022/05/04 03:52:10;;;;;;;;;;;5.40;99.90;;;;;;4985607;28;19958;-59
2022/05/04 03:54:36;;;;;;;;;;;5.50;99.90;;;;;;4981196;28;19996;-59
2022/05/04 03:57:02;;;;;;;;;;;5.30;99.90;;;;;;4983084;28;19921;-59
2022/05/04 03:59:27;;;;;;;;;;;5.20;99.90;;;;;;4981300;28;19918;-60
2022/05/04 04:01:52;;;;;;;;;;;5.10;99.90;;;;;;4982510;28;19922;-60
2022/05/04 04:04:18;;;;;;;;;;;5.00;99.90;;;;;;4984154;28;19909;-60
2022/05/04 04:06:43;;;;;;;;;;;4.90;99.90;;;;;;4982823;28;19913;-60
2022/05/04 04:09:09;;;;;;;;;;;4.90;99.90;;;;;;4984427;28;19935;-60
2022/05/04 04:11:34;;;;;;;;;;;4.90;99.90;;;;;;4985978;28;19910;-60
2022/05/04 04:14:00;;;;;;;;;;;4.70;99.90;;;;;;4985986;28;19921;-60
2022/05/04 04:16:25;;;;;;;;;;;4.80;99.90;;;;;;4982074;28;19949;-60
2022/05/04 04:18:51;;;;;;;;;;;4.80;99.90;;;;;;4979580;28;19914;-60
2022/05/04 04:24:01;;;;;;;;;;;4.90;99.90;;;;;;4977054;28;19921;-59
2022/05/04 04:26:26;;;;;;;;;;;5.00;99.90;;;;;;4983907;28;19913;-60
2022/05/04 04:28:52;;;;;;;;;;;5.00;99.90;;;;;;4982289;28;19914;-60
2022/05/04 04:31:18;;;;;;;;;;;4.90;99.90;;;;;;4980494;28;20016;-59
2022/05/04 04:33:43;;;;;;;;;;;5.00;99.90;;;;;;4984909;28;19946;-60
2022/05/04 04:36:09;;;;;;;;;;;5.00;99.90;;;;;;4985600;28;19922;-60
2022/05/04 04:38:35;;;;;;;;;;;5.10;99.90;;;;;;4986699;28;20000;-60
2022/05/04 04:41:00;;;;;;;;;;;5.20;99.90;;;;;;4985655;28;19914;-60
2022/05/04 04:43:26;;;;;;;;;;;5.30;99.90;;;;;;4985966;28;20353;-59
2022/05/04 04:45:51;;;;;;;;;;;5.30;99.90;;;;;;4985347;28;19941;-60
2022/05/04 04:48:17;;;;;;;;;;;5.40;99.90;;;;;;4983430;28;19917;-60
2022/05/04 04:50:43;;;;;;;;;;;5.40;99.90;;;;;;4986643;28;20333;-60
2022/05/04 04:53:08;;;;;;;;;;;5.30;99.90;;;;;;4989769;28;19916;-60
2022/05/04 04:55:34;;;;;;;;;;;5.40;99.90;;;;;;4986784;28;19914;-60
2022/05/04 04:58:00;;;;;;;;;;;5.50;99.90;;;;;;4985309;28;19913;-60
2022/05/04 05:00:25;;;;;;;;;;;5.50;99.90;;;;;;4986692;28;19929;-60
2022/05/04 05:02:51;;;;;;;;;;;5.60;99.90;;;;;;5018986;28;19910;-61
2022/05/04 05:05:17;;;;;;;;;;;5.70;99.90;;;;;;4982146;28;20008;-61
2022/05/04 05:07:43;;;;;;;;;;;5.70;99.90;;;;;;4985338;28;19913;-60
2022/05/04 05:10:08;;;;;;;;;;;5.80;99.90;;;;;;4984032;28;19985;-61
2022/05/04 05:12:34;;;;;;;;;;;5.90;99.90;;;;;;4982819;28;19997;-60
2022/05/04 05:17:44;;;;;;;;;;;6.10;99.90;;;;;;4983771;28;19972;-60
2022/05/04 05:20:09;;;;;;;;;;;6.20;99.90;;;;;;4987267;28;19949;-60
2022/05/04 05:22:35;;;;;;;;;;;6.30;99.90;;;;;;4981668;28;20000;-61
2022/05/04 05:25:01;;;;;;;;;;;6.50;99.90;;;;;;4985599;28;19910;-61
2022/05/04 05:27:29;;;;;;;;;;;6.60;99.90;;;;;;4987707;28;19937;-60
2022/05/04 05:29:54;;;;;;;;;;;6.60;99.90;;;;;;4985505;28;20590;-60
2022/05/04 05:32:20;;;;;;;;;;;6.70;99.90;;;;;;4989016;28;19965;-61
2022/05/04 05:34:45;;;;;;;;;;;6.70;99.90;;;;;;4987875;28;19988;-60
2022/05/04 05:37:11;;;;;;;;;;;6.90;99.90;;;;;;4984227;28;20447;-60
2022/05/04 05:39:36;;;;;;;;;;;7.00;99.90;;;;;;4981441;28;19972;-60
2022/05/04 05:42:02;;;;;;;;;;;7.10;99.90;;;;;;4988224;28;20377;-61
2022/05/04 05:44:27;;;;;;;;;;;7.10;99.90;;;;;;5017883;28;19924;-60
2022/05/04 05:46:53;;;;;;;;;;;7.20;99.90;;;;;;4982122;28;19920;-58
2022/05/04 05:49:18;;;;;;;;;;;7.20;99.90;;;;;;4988598;28;20412;-58
2022/05/04 05:51:44;;;;;;;;;;;7.30;99.90;;;;;;4986414;28;19921;-58
2022/05/04 05:54:09;;;;;;;;;;;7.30;99.90;;;;;;4982204;28;19918;-60
2022/05/04 05:56:35;;;;;;;;;;;7.40;99.90;;;;;;4986171;28;19980;-59
2022/05/04 05:59:00;;;;;;;;;;;7.60;99.90;;;;;;4983658;28;20249;-60
2022/05/04 06:01:25;;;;;;;;;;;7.70;99.90;;;;;;4985015;28;19914;-60
2022/05/04 06:03:52;;;;;;;;;;;7.90;99.90;;;;;;4985001;28;19914;-60
2022/05/04 06:06:18;;;;;;;;;;;7.90;99.90;;;;;;4984012;28;19917;-60
2022/05/04 06:08:43;;;;;;;;;;;7.70;99.90;;;;;;4983702;28;20250;-60
2022/05/04 06:11:09;;;;;;;;;;;7.90;99.90;;;;;;4981590;28;19914;-57
2022/05/04 06:13:34;;;;;;;;;;;7.70;99.90;;;;;;4984851;28;19909;-60
2022/05/04 06:16:00;;;;;;;;;;;8.00;99.90;;;;;;4987055;28;19936;-61
2022/05/04 06:18:25;;;;;;;;;;;7.90;99.90;;;;;;4984664;28;19918;-58
2022/05/04 06:20:50;;;;;;;;;;;8.00;99.90;;;;;;4984069;28;20452;-60
2022/05/04 06:23:16;;;;;;;;;;;8.20;99.90;;;;;;4985385;28;19980;-60
2022/05/04 06:25:42;;;;;;;;;;;8.30;99.90;;;;;;4982124;28;20701;-60
2022/05/04 06:28:08;;;;;;;;;;;8.30;99.90;;;;;;4984327;28;19924;-60
2022/05/04 06:36:02;;;;;;;;;;;8.70;99.90;;;;;;4976690;28;19964;-60
2022/05/04 06:38:27;;;;;;;;;;;8.70;99.90;;;;;;4980678;28;19949;-60
2022/05/04 06:40:53;;;;;;;;;;;8.80;99.90;;;;;;4984170;28;20628;-59
2022/05/04 06:43:19;;;;;;;;;;;8.80;99.90;;;;;;4980751;28;19920;-60
2022/05/04 06:45:44;;;;;;;;;;;9.00;99.90;;;;;;4984960;28;20302;-60
2022/05/04 06:48:10;;;;;;;;;;;9.00;99.90;;;;;;4981919;28;19917;-60
2022/05/04 06:50:35;;;;;;;;;;;9.10;99.90;;;;;;4980186;28;19917;-60
2022/05/04 06:53:01;;;;;;;;;;;9.40;99.90;;;;;;4989337;28;20270;-60
2022/05/04 06:55:26;;;;;;;;;;;9.50;99.90;;;;;;4983647;28;19948;-60
2022/05/04 06:57:52;;;;;;;;;;;9.50;99.90;;;;;;4982494;28;19940;-59
2022/05/04 07:00:17;;;;;;;;;;;9.40;99.90;;;;;;4977945;28;19917;-60
2022/05/04 07:02:43;;;;;;;;;;;9.70;99.90;;;;;;4984175;28;20323;-60
2022/05/04 07:05:08;;;;;;;;;;;9.60;99.90;;;;;;4985259;28;19960;-58
2022/05/04 07:07:34;;;;;;;;;;;9.80;99.90;;;;;;4984543;28;19979;-60
2022/05/04 07:09:59;;;;;;;;;;;9.90;99.90;;;;;;4984864;28;19917;-59
2022/05/04 07:12:25;;;;;;;;;;;9.70;99.90;;;;;;4985772;28;19914;-60
2022/05/04 07:14:53;;;;;;;;;;;9.60;99.90;;;;;;4983919;28;19910;-60
2022/05/04 07:17:19;;;;;;;;;;;10.10;99.90;;;;;;4981996;28;19913;-60
2022/05/04 07:19:46;;;;;;;;;;;10.20;99.90;;;;;;4979271;28;19925;-60
2022/05/04 07:22:12;;;;;;;;;;;10.30;99.90;;;;;;4984379;28;19988;-60
2022/05/04 07:24:38;;;;;;;;;;;10.40;99.90;;;;;;4983799;28;19917;-59
2022/05/04 07:27:03;;;;;;;;;;;10.10;99.90;;;;;;4983447;28;20012;-60
2022/05/04 07:29:29;;;;;;;;;;;10.40;99.90;;;;;;4982052;28;19963;-61
2022/05/04 07:31:54;;;;;;;;;;;10.40;99.90;;;;;;4983603;28;19926;-60
2022/05/04 07:34:20;;;;;;;;;;;10.60;99.90;;;;;;4984102;28;19914;-60
2022/05/04 07:36:46;;;;;;;;;;;10.70;99.90;;;;;;4984781;28;19913;-60
2022/05/04 07:44:57;;;;;;;;;;;11.00;99.90;;;;;;4984042;28;19913;-60
2022/05/04 07:47:22;;;;;;;;;;;11.10;99.90;;;;;;4979903;28;20817;-60
2022/05/04 07:49:48;;;;;;;;;;;11.00;99.90;;;;;;4980956;28;19921;-60
2022/05/04 07:52:13;;;;;;;;;;;11.20;99.90;;;;;;4983221;28;19922;-60
2022/05/04 07:54:39;;;;;;;;;;;11.30;99.90;;;;;;4980818;28;19920;-60
2022/05/04 07:57:05;;;;;;;;;;;11.20;99.90;;;;;;4980933;28;19974;-60
2022/05/04 07:59:30;;;;;;;;;;;11.40;99.90;;;;;;4986996;28;19953;-60
2022/05/04 08:04:40;;;;;;;;;;;11.80;99.90;;;;;;4980117;28;20392;-59
2022/05/04 08:07:05;;;;;;;;;;;11.90;99.90;;;;;;4981730;28;20000;-60
2022/05/04 08:09:36;;;;;;;;;;;12.30;99.90;;;;;;4985637;28;20277;-60
2022/05/04 08:12:02;;;;;;;;;;;12.40;99.90;;;;;;4983523;28;20381;-61
2022/05/04 08:14:28;;;;;;;;;;;13.20;99.90;;;;;;4988596;28;20332;-61
2022/05/04 08:16:53;;;;;;;;;;;13.30;99.90;;;;;;4986530;28;20000;-60
2022/05/04 08:19:19;;;;;;;;;;;13.50;99.90;;;;;;4983568;28;19925;-60
2022/05/04 08:21:44;;;;;;;;;;;13.30;99.90;;;;;;4983229;28;19913;-60
2022/05/04 08:24:10;;;;;;;;;;;14.00;99.90;;;;;;4981834;28;19949;-60
2022/05/04 08:26:35;;;;;;;;;;;14.70;99.90;;;;;;4980663;28;19914;-60
2022/05/04 08:29:01;;;;;;;;;;;14.90;99.90;;;;;;4980000;28;19924;-60
2022/05/04 08:31:27;;;;;;;;;;;14.80;99.90;;;;;;4980462;28;20131;-60
2022/05/04 08:33:52;;;;;;;;;;;15.20;99.90;;;;;;4982370;28;20285;-61
2022/05/04 08:36:18;;;;;;;;;;;14.40;99.90;;;;;;4981692;28;19917;-60
2022/05/04 08:38:43;;;;;;;;;;;15.00;99.90;;;;;;4981905;28;19914;-61
2022/05/04 08:41:09;;;;;;;;;;;15.30;99.90;;;;;;4984011;28;19914;-60
2022/05/04 08:43:34;;;;;;;;;;;16.10;99.90;;;;;;4984648;28;20563;-60
2022/05/04 08:46:01;;;;;;;;;;;16.40;99.90;;;;;;4984011;28;19984;-60
2022/05/04 08:48:29;;;;;;;;;;;15.60;99.90;;;;;;4987181;28;19917;-60
2022/05/04 08:50:54;;;;;;;;;;;16.30;99.90;;;;;;4984566;28;20529;-61
2022/05/04 08:53:20;;;;;;;;;;;16.40;99.90;;;;;;4981588;28;19918;-60
2022/05/04 08:55:46;;;;;;;;;;;15.50;99.90;;;;;;4984980;28;19914;-60
2022/05/04 08:58:12;;;;;;;;;;;16.30;99.90;;;;;;4985358;28;20262;-61
2022/05/04 09:00:38;;;;;;;;;;;17.00;99.90;;;;;;4983302;28;19918;-61
2022/05/04 09:03:03;;;;;;;;;;;17.70;99.90;;;;;;4980233;28;19918;-61
2022/05/04 09:05:29;;;;;;;;;;;17.10;99.90;;;;;;4984238;28;19921;-61
2022/05/04 09:07:56;;;;;;;;;;;16.10;99.90;;;;;;4984423;28;19996;-60
2022/05/04 09:10:31;;;;;;;;;;;15.50;99.90;;;;;;4984136;28;19921;-60
2022/05/04 09:12:56;;;;;;;;;;;16.40;99.90;;;;;;4981718;28;19925;-61
2022/05/04 09:15:32;;;;;;;;;;;16.50;99.90;;;;;;4979276;28;19914;-60
2022/05/04 09:18:02;;;;;;;;;;;16.90;99.90;;;;;;4985748;28;19918;-61
2022/05/04 09:23:13;;;;;;;;;;;16.90;99.90;;;;;;4985912;28;20408;-60
2022/05/04 09:25:39;;;;;;;;;;;16.90;99.90;;;;;;4987262;28;19949;-61
2022/05/04 09:28:08;;;;;;;;;;;18.40;99.90;;;;;;4986783;28;19948;-60
2022/05/04 09:30:34;;;;;;;;;;;17.70;99.90;;;;;;4981112;28;19918;-61
2022/05/04 09:32:59;;;;;;;;;;;18.70;98.40;;;;;;4985227;28;19926;-61
2022/05/04 09:35:25;;;;;;;;;;;18.40;98.40;;;;;;4989639;28;19910;-60
2022/05/04 09:46:10;;;;;;;;;;;18.50;99.50;;;;;;4989031;28;19964;-61
2022/05/04 09:48:35;;;;;;;;;;;19.50;97.40;;;;;;4982296;28;19914;-60
2022/05/04 09:51:05;;;;;;;;;;;19.10;97.00;;;;;;4987621;28;20297;-61
2022/05/04 09:53:31;;;;;;;;;;;18.50;97.20;;;;;;4984111;28;19967;-60
2022/05/04 09:55:57;;;;;;;;;;;18.10;98.40;;;;;;4983985;28;19949;-61
2022/05/04 09:58:25;;;;;;;;;;;18.10;99.90;;;;;;4986181;28;19914;-61
2022/05/04 10:00:51;;;;;;;;;;;18.80;97.60;;;;;;4984679;28;19952;-61
2022/05/04 10:03:18;;;;;;;;;;;18.50;98.90;;;;;;4982467;28;19917;-60
2022/05/04 10:05:45;;;;;;;;;;;19.40;96.60;;;;;;4981871;28;19920;-61
2022/05/04 10:08:11;;;;;;;;;;;20.50;94.40;;;;;;4980616;28;20365;-60
2022/05/04 10:10:36;;;;;;;;;;;19.60;95.10;;;;;;4992429;28;19923;-60
2022/05/04 10:13:03;;;;;;;;;;;18.80;95.40;;;;;;4986145;28;19913;-60
2022/05/04 10:15:30;;;;;;;;;;;18.90;95.80;;;;;;4987431;28;20389;-61
2022/05/04 10:18:05;;;;;;;;;;;18.60;96.80;;;;;;4988425;28;19924;-61
2022/05/04 10:20:34;;;;;;;;;;;20.30;94.30;;;;;;4989895;28;19909;-61
2022/05/04 10:23:02;;;;;;;;;;;21.60;92.20;;;;;;4977830;28;19972;-60
2022/05/04 10:25:30;;;;;;;;;;;21.80;91.20;;;;;;4984109;28;20349;-61
2022/05/04 10:28:09;;;;;;;;;;;20.80;90.20;;;;;;4975695;28;19909;-61
2022/05/04 10:30:34;;;;;;;;;;;20.00;92.00;;;;;;4988476;28;19925;-60
2022/05/04 10:33:05;;;;;;;;;;;19.50;92.70;;;;;;4984159;28;20412;-61
2022/05/04 10:35:41;;;;;;;;;;;19.60;92.90;;;;;;4985918;28;19914;-61
2022/05/04 10:38:08;;;;;;;;;;;19.40;93.80;;;;;;4982259;28;19967;-60
2022/05/04 10:40:33;;;;;;;;;;;19.60;94.30;;;;;;4980721;28;19913;-61
2022/05/04 10:43:02;;;;;;;;;;;20.40;92.60;;;;;;4981626;28;20477;-61
2022/05/04 10:45:30;;;;;;;;;;;18.90;94.70;;;;;;4985335;28;19917;-60
2022/05/04 10:48:22;;;;;;;;;;;19.40;93.30;;;;;;4988285;28;20045;-61
2022/05/04 10:50:51;;;;;;;;;;;19.00;94.90;;;;;;4988558;28;19921;-60
2022/05/04 10:53:18;;;;;;;;;;;20.70;92.40;;;;;;4981683;28;19921;-61
2022/05/04 10:55:52;;;;;;;;;;;21.00;91.40;;;;;;4983081;28;19921;-61
2022/05/04 10:58:31;;;;;;;;;;;21.50;92.00;;;;;;4985624;28;19918;-61
2022/05/04 11:01:16;;;;;;;;;;;21.30;90.80;;;;;;4984154;28;20481;-61
2022/05/04 11:03:49;;;;;;;;;;;21.10;90.90;;;;;;4984349;28;19917;-60
2022/05/04 11:06:25;;;;;;;;;;;19.60;92.70;;;;;;4984135;28;19914;-61
2022/05/04 11:08:52;;;;;;;;;;;19.90;92.60;;;;;;4984507;28;19987;-60
2022/05/04 11:11:23;;;;;;;;;;;18.80;92.70;;;;;;4984169;28;19913;-61
2022/05/04 11:13:49;;;;;;;;;;;19.10;93.00;;;;;;4982232;28;19923;-60
2022/05/04 11:16:15;;;;;;;;;;;18.90;93.70;;;;;;4985905;28;20285;-60
2022/05/04 11:18:40;;;;;;;;;;;18.60;93.60;;;;;;4982513;28;20108;-60
2022/05/04 11:21:13;;;;;;;;;;;18.50;94.10;;;;;;4984071;28;19914;-60
2022/05/04 11:23:38;;;;;;;;;;;18.40;93.60;;;;;;4981554;28;19917;-60
2022/05/04 11:26:04;;;;;;;;;;;17.60;94.90;;;;;;4985775;28;19917;-61
2022/05/04 11:28:30;;;;;;;;;;;17.30;96.30;;;;;;4983652;28;19914;-61
2022/05/04 11:30:56;;;;;;;;;;;18.10;95.00;;;;;;4982413;28;20269;-61
2022/05/04 11:33:21;;;;;;;;;;;18.80;94.40;;;;;;4984381;28;20009;-60
2022/05/04 11:35:54;;;;;;;;;;;19.90;93.70;;;;;;4985353;28;20374;-61
2022/05/04 11:38:21;;;;;;;;;;;20.60;92.30;;;;;;4985937;28;19921;-60
2022/05/04 11:40:47;;;;;;;;;;;21.10;91.70;;;;;;4984078;28;19913;-60
2022/05/04 11:43:28;;;;;;;;;;;20.60;91.60;;;;;;4982702;28;20369;-60
2022/05/04 11:45:54;;;;;;;;;;;20.80;91.80;;;;;;4980402;28;19969;-60
2022/05/04 11:48:21;;;;;;;;;;;21.40;91.20;;;;;;4981591;28;19948;-60
2022/05/04 11:50:47;;;;;;;;;;;21.00;90.70;;;;;;4979789;28;20888;-60
2022/05/04 11:53:13;;;;;;;;;;;19.70;92.50;;;;;;4981694;28;19960;-60
2022/05/04 11:55:38;;;;;;;;;;;19.60;92.10;;;;;;4985070;28;19924;-60
2022/05/04 11:58:08;;;;;;;;;;;17.90;94.50;;;;;;4985490;28;19945;-61
2022/05/04 12:00:33;;;;;;;;;;;19.00;94.70;;;;;;4978674;28;19928;-61
2022/05/04 12:02:59;;;;;;;;;;;19.80;92.70;;;;;;4982973;28;20405;-60
2022/05/04 12:05:24;;;;;;;;;;;19.80;92.90;;;;;;4992033;28;20430;-61
2022/05/04 12:07:50;;;;;;;;;;;19.50;93.40;;;;;;4981585;28;19910;-60
2022/05/04 12:10:16;;;;;;;;;;;19.70;93.50;;;;;;4979431;28;19925;-60
2022/05/04 12:12:42;;;;;;;;;;;20.00;92.50;;;;;;4986038;28;19914;-60
2022/05/04 12:15:10;;;;;;;;;;;21.10;91.10;;;;;;4982464;28;19914;-60
2022/05/04 12:17:38;;;;;;;;;;;22.10;90.50;;;;;;5017888;28;20436;-60
2022/05/04 12:20:05;;;;;;;;;;;;;;;;;;4986138;28;19914;-61
2022/05/04 12:22:31;;;;;;;;;;;23.90;84.70;;;;;;4986943;28;19917;-61
2022/05/04 12:24:57;;;;;;;;;;;24.10;82.10;;;;;;4987490;28;19916;-61
2022/05/04 12:27:23;;;;;;;;;;;24.90;80.70;;;;;;4985219;28;20351;-60
2022/05/04 12:35:20;;;;;;;;;;;25.30;74.00;;;;;;4987383;28;19917;-61
2022/05/04 12:37:49;;;;;;;;;;;24.80;70.80;;;;;;4982319;28;19921;-61
2022/05/04 12:40:15;;;;;;;;;;;20.30;82.40;;;;;;4983104;28;19913;-60
2022/05/04 12:42:40;;;;;;;;;;;20.60;83.30;;;;;;4988346;28;19992;-60
2022/05/04 12:45:06;;;;;;;;;;;22.10;80.00;;;;;;4985504;28;20343;-60
2022/05/04 12:47:31;;;;;;;;;;;23.00;76.80;;;;;;4983933;28;19961;-60
2022/05/04 12:49:57;;;;;;;;;;;24.10;74.30;;;;;;4978745;28;20341;-61
2022/05/04 12:52:22;;;;;;;;;;;22.70;77.20;;;;;;4982316;28;19913;-61
2022/05/04 12:54:48;;;;;;;;;;;23.70;75.90;;;;;;4981537;28;19918;-61
2022/05/04 12:57:14;;;;;;;;;;;23.60;73.40;;;;;;4986928;28;20286;-61
2022/05/04 12:59:39;;;;;;;;;;;22.30;77.10;;;;;;4987609;28;19910;-61
2022/05/04 13:02:05;;;;;;;;;;;22.10;77.50;;;;;;5002976;28;19937;-61
2022/05/04 13:04:30;;;;;;;;;;;21.00;78.30;;;;;;4984381;28;19928;-60
2022/05/04 13:06:56;;;;;;;;;;;20.80;81.50;;;;;;4981933;28;20404;-60
2022/05/04 13:09:21;;;;;;;;;;;22.60;77.10;;;;;;4987289;28;20285;-61
2022/05/04 13:11:47;;;;;;;;;;;24.40;72.60;;;;;;4983263;28;19920;-61
2022/05/04 13:14:13;;;;;;;;;;;25.30;70.60;;;;;;4986148;28;20635;-60
2022/05/04 13:16:38;;;;;;;;;;;25.90;67.90;;;;;;4986776;28;20387;-60
2022/05/04 13:19:06;;;;;;;;;;;26.10;66.10;;;;;;4985643;28;19910;-61
2022/05/04 13:21:31;;;;;;;;;;;26.30;66.80;;;;;;4986021;28;20349;-60
2022/05/04 13:23:57;;;;;;;;;;;26.00;64.00;;;;;;4984588;28;19925;-61
2022/05/04 13:26:22;;;;;;;;;;;25.80;64.10;;;;;;4986976;28;20086;-60
2022/05/04 13:28:47;;;;;;;;;;;25.70;65.40;;;;;;4983623;28;20008;-60
2022/05/04 13:31:13;;;;;;;;;;;24.60;65.30;;;;;;4981084;28;20002;-61
2022/05/04 13:33:39;;;;;;;;;;;27.30;64.80;;;;;;4985477;28;20471;-61
2022/05/04 13:36:05;;;;;;;;;;;26.80;63.00;;;;;;4984730;28;20180;-60
2022/05/04 13:38:30;;;;;;;;;;;26.30;62.30;;;;;;4988300;28;19905;-61
2022/05/04 13:40:57;;;;;;;;;;;25.90;62.20;;;;;;4989114;28;20293;-61
2022/05/04 13:43:24;;;;;;;;;;;27.20;62.90;;;;;;4986602;28;20310;-61
2022/05/04 13:45:49;;;;;;;;;;;27.80;61.40;;;;;;4985186;28;19914;-61
2022/05/04 13:48:15;;;;;;;;;;;26.10;61.20;;;;;;4986622;28;19928;-60
2022/05/04 13:53:25;;;;;;;;;;;23.90;64.30;;;;;;4986645;28;19968;-60
2022/05/04 13:55:51;;;;;;;;;;;24.00;64.70;;;;;;4984591;28;19960;-61
2022/05/04 13:58:21;;;;;;;;;;;23.30;67.50;;;;;;4980920;28;20781;-61
2022/05/04 14:00:47;;;;;;;;;;;24.40;65.40;;;;;;4981577;28;20428;-61
2022/05/04 14:03:13;;;;;;;;;;;25.10;62.10;;;;;;4983812;28;19918;-60
2022/05/04 14:05:38;;;;;;;;;;;25.40;61.40;;;;;;4984404;28;19918;-61
2022/05/04 14:08:04;;;;;;;;;;;23.90;63.70;;;;;;4980977;28;19940;-60
2022/05/04 14:10:30;;;;;;;;;;;23.70;64.80;;;;;;4981064;28;20008;-60
2022/05/04 14:12:58;;;;;;;;;;;24.20;65.30;;;;;;4984808;28;19924;-60
2022/05/04 14:15:23;;;;;;;;;;;24.10;63.90;;;;;;4986093;28;19962;-61
2022/05/04 14:17:49;;;;;;;;;;;24.20;62.70;;;;;;4980893;28;20433;-60
2022/05/04 14:20:14;;;;;;;;;;;24.10;63.40;;;;;;4986375;28;20033;-61
2022/05/04 14:22:40;;;;;;;;;;;25.00;62.20;;;;;;4987695;28;19977;-60
2022/05/04 14:25:05;;;;;;;;;;;25.90;62.00;;;;;;4986528;28;19918;-61
2022/05/04 14:27:31;;;;;;;;;;;26.90;61.60;;;;;;4982072;28;19932;-61
2022/05/04 14:29:57;;;;;;;;;;;26.00;60.30;;;;;;4986803;28;20020;-61
2022/05/04 14:32:23;;;;;;;;;;;27.60;58.60;;;;;;4983180;28;19972;-61
2022/05/04 14:34:49;;;;;;;;;;;26.20;59.30;;;;;;4983924;28;19945;-61
2022/05/04 14:37:14;;;;;;;;;;;26.00;56.90;;;;;;4980987;28;19917;-61
2022/05/04 14:39:40;;;;;;;;;;;25.50;55.50;;;;;;4983634;28;19914;-61
2022/05/04 14:42:06;;;;;;;;;;;24.90;56.80;;;;;;4983887;28;19979;-61
2022/05/04 14:44:31;;;;;;;;;;;25.90;57.20;;;;;;4985456;28;19987;-61
2022/05/04 14:46:57;;;;;;;;;;;26.10;56.00;;;;;;4985146;28;19914;-61
2022/05/04 14:49:22;;;;;;;;;;;26.70;55.40;;;;;;5014830;28;20020;-62
2022/05/04 14:51:48;;;;;;;;;;;27.20;54.50;;;;;;4980782;28;19965;-60
2022/05/04 14:54:13;;;;;;;;;;;27.20;54.10;;;;;;4984910;28;19917;-61
2022/05/04 14:56:39;;;;;;;;;;;25.00;58.10;;;;;;4983996;28;19917;-60
2022/05/04 14:59:04;;;;;;;;;;;25.20;58.10;;;;;;4980064;28;19944;-60